sensor_id;sensor_type;location;lat;lon;timestamp;P1;durP1;ratioP1;P2;durP2;ratioP2
16727;SDS011;8482;54.396;18.590;2022-09-11T00:01:21;11.75;;;6.97;;
16727;SDS011;8482;54.396;18.590;2022-09-11T00:03:47;12.00;;;7.57;;
16727;SDS011;8482;54.396;18.590;2022-09-11T00:06:14;12.05;;;6.68;;
16727;SDS011;8482;54.396;18.590;2022-09-11T00:08:46;11.68;;;7.20;;
16727;SDS011;8482;54.396;18.590;2022-09-11T00:11:17;11.32;;;7.25;;
16727;SDS011;8482;54.396;18.590;2022-09-11T00:13:50;11.52;;;7.05;;
16727;SDS011;8482;54.396;18.590;2022-09-11T00:18:46;11.07;;;7.07;;
16727;SDS011;8482;54.396;18.590;2022-09-11T00:21:13;10.63;;;7.30;;
16727;SDS011;8482;54.396;18.590;2022-09-11T00:23:40;10.30;;;6.85;;
16727;SDS011;8482;54.396;18.590;2022-09-11T00:26:06;10.25;;;6.15;;
16727;SDS011;8482;54.396;18.590;2022-09-11T00:28:33;11.10;;;6.90;;
16727;SDS011;8482;54.396;18.590;2022-09-11T00:33:30;11.45;;;7.35;;
16727;SDS011;8482;54.396;18.590;2022-09-11T00:35:58;9.57;;;6.68;;
16727;SDS011;8482;54.396;18.590;2022-09-11T00:38:29;10.13;;;6.32;;
16727;SDS011;8482;54.396;18.590;2022-09-11T00:40:59;11.98;;;7.38;;
16727;SDS011;8482;54.396;18.590;2022-09-11T00:43:28;12.70;;;7.35;;
16727;SDS011;8482;54.396;18.590;2022-09-11T00:46:28;11.25;;;7.50;;
16727;SDS011;8482;54.396;18.590;2022-09-11T00:49:14;11.50;;;6.82;;
16727;SDS011;8482;54.396;18.590;2022-09-11T00:51:44;9.75;;;6.38;;
16727;SDS011;8482;54.396;18.590;2022-09-11T00:54:16;10.38;;;6.65;;
16727;SDS011;8482;54.396;18.590;2022-09-11T00:56:50;9.27;;;6.00;;
16727;SDS011;8482;54.396;18.590;2022-09-11T00:59:18;10.45;;;6.65;;
16727;SDS011;8482;54.396;18.590;2022-09-11T01:01:51;10.18;;;6.30;;
16727;SDS011;8482;54.396;18.590;2022-09-11T01:04:18;9.35;;;5.85;;
16727;SDS011;8482;54.396;18.590;2022-09-11T01:06:47;10.35;;;6.80;;
16727;SDS011;8482;54.396;18.590;2022-09-11T01:09:18;9.88;;;6.53;;
16727;SDS011;8482;54.396;18.590;2022-09-11T01:14:36;11.43;;;6.85;;
16727;SDS011;8482;54.396;18.590;2022-09-11T01:17:26;11.98;;;7.35;;
16727;SDS011;8482;54.396;18.590;2022-09-11T01:23:05;12.10;;;7.70;;
16727;SDS011;8482;54.396;18.590;2022-09-11T01:29:16;12.05;;;7.28;;
16727;SDS011;8482;54.396;18.590;2022-09-11T01:32:07;12.55;;;8.50;;
16727;SDS011;8482;54.396;18.590;2022-09-11T01:37:38;11.68;;;7.20;;
16727;SDS011;8482;54.396;18.590;2022-09-11T01:40:32;10.68;;;6.35;;
16727;SDS011;8482;54.396;18.590;2022-09-11T01:43:30;9.45;;;6.43;;
16727;SDS011;8482;54.396;18.590;2022-09-11T01:46:03;10.30;;;6.47;;
16727;SDS011;8482;54.396;18.590;2022-09-11T01:48:35;9.38;;;6.22;;
16727;SDS011;8482;54.396;18.590;2022-09-11T01:51:08;8.90;;;6.05;;
16727;SDS011;8482;54.396;18.590;2022-09-11T01:53:43;10.40;;;6.22;;
16727;SDS011;8482;54.396;18.590;2022-09-11T01:56:25;10.30;;;5.88;;
16727;SDS011;8482;54.396;18.590;2022-09-11T01:59:00;8.98;;;5.57;;
16727;SDS011;8482;54.396;18.590;2022-09-11T02:01:34;9.35;;;5.95;;
16727;SDS011;8482;54.396;18.590;2022-09-11T02:04:07;8.70;;;5.45;;
16727;SDS011;8482;54.396;18.590;2022-09-11T02:06:42;8.48;;;4.93;;
16727;SDS011;8482;54.396;18.590;2022-09-11T02:09:13;9.57;;;6.13;;
16727;SDS011;8482;54.396;18.590;2022-09-11T02:11:45;10.52;;;6.63;;
16727;SDS011;8482;54.396;18.590;2022-09-11T02:14:32;11.15;;;6.60;;
16727;SDS011;8482;54.396;18.590;2022-09-11T02:20:12;10.95;;;7.05;;
16727;SDS011;8482;54.396;18.590;2022-09-11T02:22:39;10.30;;;6.90;;
16727;SDS011;8482;54.396;18.590;2022-09-11T02:25:06;9.30;;;6.15;;
16727;SDS011;8482;54.396;18.590;2022-09-11T02:27:32;9.38;;;6.50;;
16727;SDS011;8482;54.396;18.590;2022-09-11T02:29:59;8.82;;;5.88;;
16727;SDS011;8482;54.396;18.590;2022-09-11T02:32:25;9.10;;;5.32;;
16727;SDS011;8482;54.396;18.590;2022-09-11T02:34:52;9.20;;;5.68;;
16727;SDS011;8482;54.396;18.590;2022-09-11T02:43:21;8.55;;;5.80;;
16727;SDS011;8482;54.396;18.590;2022-09-11T02:49:09;8.05;;;5.40;;
16727;SDS011;8482;54.396;18.590;2022-09-11T02:52:48;8.38;;;5.35;;
16727;SDS011;8482;54.396;18.590;2022-09-11T02:58:39;7.97;;;4.82;;
16727;SDS011;8482;54.396;18.590;2022-09-11T03:01:14;8.75;;;4.88;;
16727;SDS011;8482;54.396;18.590;2022-09-11T03:03:42;6.97;;;4.60;;
16727;SDS011;8482;54.396;18.590;2022-09-11T03:06:14;9.32;;;5.38;;
16727;SDS011;8482;54.396;18.590;2022-09-11T03:08:44;7.70;;;4.97;;
16727;SDS011;8482;54.396;18.590;2022-09-11T03:11:11;8.02;;;5.30;;
16727;SDS011;8482;54.396;18.590;2022-09-11T03:13:39;8.55;;;5.38;;
16727;SDS011;8482;54.396;18.590;2022-09-11T03:16:05;6.95;;;4.50;;
16727;SDS011;8482;54.396;18.590;2022-09-11T03:18:32;8.75;;;5.28;;
16727;SDS011;8482;54.396;18.590;2022-09-11T03:20:58;7.72;;;4.72;;
16727;SDS011;8482;54.396;18.590;2022-09-11T03:23:25;8.65;;;4.70;;
16727;SDS011;8482;54.396;18.590;2022-09-11T03:25:52;9.05;;;5.25;;
16727;SDS011;8482;54.396;18.590;2022-09-11T03:28:19;7.80;;;4.72;;
16727;SDS011;8482;54.396;18.590;2022-09-11T03:30:47;7.80;;;5.07;;
16727;SDS011;8482;54.396;18.590;2022-09-11T03:33:13;8.73;;;5.00;;
16727;SDS011;8482;54.396;18.590;2022-09-11T03:35:43;9.07;;;5.28;;
16727;SDS011;8482;54.396;18.590;2022-09-11T03:38:11;8.23;;;5.22;;
16727;SDS011;8482;54.396;18.590;2022-09-11T03:40:37;8.43;;;5.40;;
16727;SDS011;8482;54.396;18.590;2022-09-11T03:43:05;11.00;;;5.25;;
16727;SDS011;8482;54.396;18.590;2022-09-11T03:45:31;7.63;;;4.50;;
16727;SDS011;8482;54.396;18.590;2022-09-11T03:47:57;7.68;;;4.53;;
16727;SDS011;8482;54.396;18.590;2022-09-11T03:50:22;8.20;;;4.53;;
16727;SDS011;8482;54.396;18.590;2022-09-11T03:52:48;8.63;;;5.30;;
16727;SDS011;8482;54.396;18.590;2022-09-11T03:55:15;7.00;;;4.20;;
16727;SDS011;8482;54.396;18.590;2022-09-11T03:57:40;7.75;;;4.45;;
16727;SDS011;8482;54.396;18.590;2022-09-11T04:00:06;7.43;;;4.53;;
16727;SDS011;8482;54.396;18.590;2022-09-11T04:02:34;7.70;;;4.20;;
16727;SDS011;8482;54.396;18.590;2022-09-11T04:04:59;6.97;;;4.13;;
16727;SDS011;8482;54.396;18.590;2022-09-11T04:07:27;7.80;;;4.18;;
16727;SDS011;8482;54.396;18.590;2022-09-11T04:09:55;6.53;;;3.95;;
16727;SDS011;8482;54.396;18.590;2022-09-11T04:12:22;6.70;;;3.90;;
16727;SDS011;8482;54.396;18.590;2022-09-11T04:14:48;5.53;;;3.45;;
16727;SDS011;8482;54.396;18.590;2022-09-11T04:17:14;6.22;;;3.60;;
16727;SDS011;8482;54.396;18.590;2022-09-11T04:19:41;6.13;;;3.80;;
16727;SDS011;8482;54.396;18.590;2022-09-11T04:22:07;6.18;;;3.58;;
16727;SDS011;8482;54.396;18.590;2022-09-11T04:24:32;5.72;;;3.50;;
16727;SDS011;8482;54.396;18.590;2022-09-11T04:26:59;6.85;;;3.78;;
16727;SDS011;8482;54.396;18.590;2022-09-11T04:29:25;6.60;;;3.90;;
16727;SDS011;8482;54.396;18.590;2022-09-11T04:31:52;5.72;;;3.30;;
16727;SDS011;8482;54.396;18.590;2022-09-11T04:34:18;5.43;;;3.30;;
16727;SDS011;8482;54.396;18.590;2022-09-11T04:36:44;6.43;;;3.60;;
16727;SDS011;8482;54.396;18.590;2022-09-11T04:39:10;5.55;;;3.40;;
16727;SDS011;8482;54.396;18.590;2022-09-11T04:41:36;5.60;;;3.33;;
16727;SDS011;8482;54.396;18.590;2022-09-11T04:44:02;5.85;;;3.05;;
16727;SDS011;8482;54.396;18.590;2022-09-11T04:46:28;5.60;;;3.38;;
16727;SDS011;8482;54.396;18.590;2022-09-11T04:48:55;5.95;;;3.45;;
16727;SDS011;8482;54.396;18.590;2022-09-11T04:51:27;5.75;;;3.42;;
16727;SDS011;8482;54.396;18.590;2022-09-11T04:53:56;6.45;;;3.30;;
16727;SDS011;8482;54.396;18.590;2022-09-11T04:56:24;6.28;;;3.40;;
16727;SDS011;8482;54.396;18.590;2022-09-11T04:59:03;6.20;;;3.45;;
16727;SDS011;8482;54.396;18.590;2022-09-11T05:01:43;5.75;;;3.40;;
16727;SDS011;8482;54.396;18.590;2022-09-11T05:04:13;7.03;;;3.80;;
16727;SDS011;8482;54.396;18.590;2022-09-11T05:06:42;6.15;;;3.55;;
16727;SDS011;8482;54.396;18.590;2022-09-11T05:09:12;5.50;;;2.90;;
16727;SDS011;8482;54.396;18.590;2022-09-11T05:11:39;6.55;;;3.60;;
16727;SDS011;8482;54.396;18.590;2022-09-11T05:14:06;6.43;;;3.63;;
16727;SDS011;8482;54.396;18.590;2022-09-11T05:16:33;5.75;;;3.30;;
16727;SDS011;8482;54.396;18.590;2022-09-11T05:19:00;5.68;;;3.28;;
16727;SDS011;8482;54.396;18.590;2022-09-11T05:21:29;6.40;;;3.45;;
16727;SDS011;8482;54.396;18.590;2022-09-11T05:23:58;6.18;;;3.20;;
16727;SDS011;8482;54.396;18.590;2022-09-11T05:26:26;6.43;;;3.25;;
16727;SDS011;8482;54.396;18.590;2022-09-11T05:28:59;5.82;;;3.58;;
16727;SDS011;8482;54.396;18.590;2022-09-11T05:31:31;6.60;;;3.53;;
16727;SDS011;8482;54.396;18.590;2022-09-11T05:33:57;5.28;;;2.92;;
16727;SDS011;8482;54.396;18.590;2022-09-11T05:36:24;5.03;;;3.35;;
16727;SDS011;8482;54.396;18.590;2022-09-11T05:38:52;5.60;;;3.10;;
16727;SDS011;8482;54.396;18.590;2022-09-11T05:41:18;7.70;;;3.65;;
16727;SDS011;8482;54.396;18.590;2022-09-11T05:43:44;6.22;;;3.25;;
16727;SDS011;8482;54.396;18.590;2022-09-11T05:46:11;6.05;;;3.10;;
16727;SDS011;8482;54.396;18.590;2022-09-11T05:48:40;6.10;;;3.17;;
16727;SDS011;8482;54.396;18.590;2022-09-11T05:51:17;6.53;;;3.08;;
16727;SDS011;8482;54.396;18.590;2022-09-11T05:53:45;5.72;;;3.30;;
16727;SDS011;8482;54.396;18.590;2022-09-11T05:56:16;6.57;;;3.05;;
16727;SDS011;8482;54.396;18.590;2022-09-11T05:58:46;5.70;;;2.83;;
16727;SDS011;8482;54.396;18.590;2022-09-11T06:01:14;6.15;;;2.72;;
16727;SDS011;8482;54.396;18.590;2022-09-11T06:03:43;4.18;;;2.63;;
16727;SDS011;8482;54.396;18.590;2022-09-11T06:06:11;5.57;;;3.10;;
16727;SDS011;8482;54.396;18.590;2022-09-11T06:08:38;5.45;;;2.90;;
16727;SDS011;8482;54.396;18.590;2022-09-11T06:11:08;6.55;;;2.88;;
16727;SDS011;8482;54.396;18.590;2022-09-11T06:13:37;5.60;;;3.10;;
16727;SDS011;8482;54.396;18.590;2022-09-11T06:16:07;4.78;;;2.50;;
16727;SDS011;8482;54.396;18.590;2022-09-11T06:18:35;4.97;;;2.63;;
16727;SDS011;8482;54.396;18.590;2022-09-11T06:21:02;5.18;;;2.88;;
16727;SDS011;8482;54.396;18.590;2022-09-11T06:23:35;4.75;;;2.80;;
16727;SDS011;8482;54.396;18.590;2022-09-11T06:26:04;6.75;;;3.58;;
16727;SDS011;8482;54.396;18.590;2022-09-11T06:28:33;5.72;;;2.75;;
16727;SDS011;8482;54.396;18.590;2022-09-11T06:31:00;6.50;;;3.40;;
16727;SDS011;8482;54.396;18.590;2022-09-11T06:33:38;5.80;;;3.40;;
16727;SDS011;8482;54.396;18.590;2022-09-11T06:36:18;6.78;;;3.20;;
16727;SDS011;8482;54.396;18.590;2022-09-11T06:38:51;6.53;;;3.22;;
16727;SDS011;8482;54.396;18.590;2022-09-11T06:41:21;5.70;;;3.30;;
16727;SDS011;8482;54.396;18.590;2022-09-11T06:43:48;5.93;;;3.50;;
16727;SDS011;8482;54.396;18.590;2022-09-11T06:46:15;6.30;;;3.50;;
16727;SDS011;8482;54.396;18.590;2022-09-11T06:48:44;6.97;;;3.10;;
16727;SDS011;8482;54.396;18.590;2022-09-11T06:51:13;5.95;;;3.20;;
16727;SDS011;8482;54.396;18.590;2022-09-11T06:53:42;5.18;;;2.60;;
16727;SDS011;8482;54.396;18.590;2022-09-11T06:56:12;4.65;;;2.47;;
16727;SDS011;8482;54.396;18.590;2022-09-11T06:58:42;5.32;;;2.75;;
16727;SDS011;8482;54.396;18.590;2022-09-11T07:01:10;4.72;;;2.50;;
16727;SDS011;8482;54.396;18.590;2022-09-11T07:03:43;3.83;;;2.15;;
16727;SDS011;8482;54.396;18.590;2022-09-11T07:06:18;4.18;;;1.95;;
16727;SDS011;8482;54.396;18.590;2022-09-11T07:08:53;4.28;;;2.00;;
16727;SDS011;8482;54.396;18.590;2022-09-11T07:11:25;3.97;;;2.13;;
16727;SDS011;8482;54.396;18.590;2022-09-11T07:13:56;4.13;;;2.03;;
16727;SDS011;8482;54.396;18.590;2022-09-11T07:16:23;3.78;;;1.73;;
16727;SDS011;8482;54.396;18.590;2022-09-11T07:18:49;2.75;;;1.73;;
16727;SDS011;8482;54.396;18.590;2022-09-11T07:21:17;3.97;;;1.95;;
16727;SDS011;8482;54.396;18.590;2022-09-11T07:23:48;2.88;;;1.75;;
16727;SDS011;8482;54.396;18.590;2022-09-11T07:26:19;3.45;;;1.70;;
16727;SDS011;8482;54.396;18.590;2022-09-11T07:28:46;2.58;;;1.70;;
16727;SDS011;8482;54.396;18.590;2022-09-11T07:31:16;2.97;;;1.63;;
16727;SDS011;8482;54.396;18.590;2022-09-11T07:33:45;2.75;;;1.48;;
16727;SDS011;8482;54.396;18.590;2022-09-11T07:36:15;2.53;;;1.52;;
16727;SDS011;8482;54.396;18.590;2022-09-11T07:38:53;3.03;;;1.75;;
16727;SDS011;8482;54.396;18.590;2022-09-11T07:41:20;3.13;;;1.73;;
16727;SDS011;8482;54.396;18.590;2022-09-11T07:43:51;2.25;;;1.67;;
16727;SDS011;8482;54.396;18.590;2022-09-11T07:46:24;2.00;;;1.40;;
16727;SDS011;8482;54.396;18.590;2022-09-11T07:48:51;2.95;;;1.60;;
16727;SDS011;8482;54.396;18.590;2022-09-11T07:51:18;4.15;;;1.75;;
16727;SDS011;8482;54.396;18.590;2022-09-11T07:53:45;2.35;;;1.48;;
16727;SDS011;8482;54.396;18.590;2022-09-11T07:56:18;3.28;;;1.70;;
16727;SDS011;8482;54.396;18.590;2022-09-11T07:58:50;3.40;;;1.83;;
16727;SDS011;8482;54.396;18.590;2022-09-11T08:01:19;2.33;;;1.50;;
16727;SDS011;8482;54.396;18.590;2022-09-11T08:04:02;3.38;;;1.65;;
16727;SDS011;8482;54.396;18.590;2022-09-11T08:06:31;2.78;;;1.70;;
16727;SDS011;8482;54.396;18.590;2022-09-11T08:09:01;3.35;;;1.63;;
16727;SDS011;8482;54.396;18.590;2022-09-11T08:11:31;3.42;;;1.70;;
16727;SDS011;8482;54.396;18.590;2022-09-11T08:14:02;4.88;;;1.98;;
16727;SDS011;8482;54.396;18.590;2022-09-11T08:16:28;2.70;;;1.42;;
16727;SDS011;8482;54.396;18.590;2022-09-11T08:18:55;3.42;;;1.63;;
16727;SDS011;8482;54.396;18.590;2022-09-11T08:21:21;3.28;;;1.58;;
16727;SDS011;8482;54.396;18.590;2022-09-11T08:23:47;3.15;;;1.77;;
16727;SDS011;8482;54.396;18.590;2022-09-11T08:26:15;3.58;;;2.00;;
16727;SDS011;8482;54.396;18.590;2022-09-11T08:28:45;3.03;;;1.75;;
16727;SDS011;8482;54.396;18.590;2022-09-11T08:31:17;3.42;;;1.92;;
16727;SDS011;8482;54.396;18.590;2022-09-11T08:33:46;4.07;;;1.75;;
16727;SDS011;8482;54.396;18.590;2022-09-11T08:36:13;2.85;;;1.58;;
16727;SDS011;8482;54.396;18.590;2022-09-11T08:38:40;3.78;;;1.48;;
16727;SDS011;8482;54.396;18.590;2022-09-11T08:43:53;2.70;;;1.40;;
16727;SDS011;8482;54.396;18.590;2022-09-11T08:46:29;1.90;;;1.38;;
16727;SDS011;8482;54.396;18.590;2022-09-11T08:51:49;2.17;;;1.33;;
16727;SDS011;8482;54.396;18.590;2022-09-11T08:54:23;2.50;;;1.30;;
16727;SDS011;8482;54.396;18.590;2022-09-11T09:09:19;1.67;;;1.10;;
16727;SDS011;8482;54.396;18.590;2022-09-11T09:17:51;2.22;;;1.25;;
16727;SDS011;8482;54.396;18.590;2022-09-11T09:20:29;2.40;;;1.35;;
16727;SDS011;8482;54.396;18.590;2022-09-11T09:23:06;1.98;;;1.27;;
16727;SDS011;8482;54.396;18.590;2022-09-11T09:25:43;1.80;;;1.20;;
16727;SDS011;8482;54.396;18.590;2022-09-11T09:28:19;1.20;;;1.00;;
16727;SDS011;8482;54.396;18.590;2022-09-11T09:31:05;1.15;;;0.85;;
16727;SDS011;8482;54.396;18.590;2022-09-11T09:36:29;2.35;;;1.10;;
16727;SDS011;8482;54.396;18.590;2022-09-11T09:39:20;1.52;;;1.00;;
16727;SDS011;8482;54.396;18.590;2022-09-11T09:47:21;1.63;;;0.93;;
16727;SDS011;8482;54.396;18.590;2022-09-11T09:49:47;1.65;;;1.33;;
16727;SDS011;8482;54.396;18.590;2022-09-11T09:52:17;1.38;;;1.08;;
16727;SDS011;8482;54.396;18.590;2022-09-11T09:55:01;1.50;;;0.90;;
16727;SDS011;8482;54.396;18.590;2022-09-11T09:57:37;1.08;;;0.90;;
16727;SDS011;8482;54.396;18.590;2022-09-11T10:02:48;1.55;;;1.10;;
16727;SDS011;8482;54.396;18.590;2022-09-11T10:08:20;1.10;;;1.00;;
16727;SDS011;8482;54.396;18.590;2022-09-11T10:13:30;1.60;;;1.00;;
16727;SDS011;8482;54.396;18.590;2022-09-11T10:16:02;1.35;;;1.00;;
16727;SDS011;8482;54.396;18.590;2022-09-11T10:18:43;1.77;;;1.00;;
16727;SDS011;8482;54.396;18.590;2022-09-11T10:23:43;1.67;;;0.98;;
16727;SDS011;8482;54.396;18.590;2022-09-11T10:26:17;1.52;;;0.98;;
16727;SDS011;8482;54.396;18.590;2022-09-11T10:29:28;1.10;;;0.90;;
16727;SDS011;8482;54.396;18.590;2022-09-11T10:31:57;1.00;;;0.90;;
16727;SDS011;8482;54.396;18.590;2022-09-11T10:34:34;1.30;;;1.00;;
16727;SDS011;8482;54.396;18.590;2022-09-11T10:39:37;1.33;;;0.90;;
16727;SDS011;8482;54.396;18.590;2022-09-11T10:44:42;1.00;;;0.90;;
16727;SDS011;8482;54.396;18.590;2022-09-11T10:55:19;1.15;;;0.95;;
16727;SDS011;8482;54.396;18.590;2022-09-11T11:00:28;0.88;;;0.85;;
16727;SDS011;8482;54.396;18.590;2022-09-11T11:02:57;1.75;;;1.00;;
16727;SDS011;8482;54.396;18.590;2022-09-11T11:12:11;2.33;;;1.35;;
16727;SDS011;8482;54.396;18.590;2022-09-11T11:32:07;1.50;;;0.90;;
16727;SDS011;8482;54.396;18.590;2022-09-11T11:35:22;1.88;;;1.00;;
16727;SDS011;8482;54.396;18.590;2022-09-11T11:38:09;1.70;;;1.25;;
16727;SDS011;8482;54.396;18.590;2022-09-11T11:41:03;1.02;;;0.90;;
16727;SDS011;8482;54.396;18.590;2022-09-11T11:43:55;1.33;;;1.00;;
16727;SDS011;8482;54.396;18.590;2022-09-11T11:49:21;1.90;;;1.02;;
16727;SDS011;8482;54.396;18.590;2022-09-11T11:52:01;1.33;;;0.88;;
16727;SDS011;8482;54.396;18.590;2022-09-11T11:55:20;1.40;;;1.05;;
16727;SDS011;8482;54.396;18.590;2022-09-11T12:00:55;1.65;;;0.98;;
16727;SDS011;8482;54.396;18.590;2022-09-11T12:03:39;1.33;;;0.90;;
16727;SDS011;8482;54.396;18.590;2022-09-11T12:06:15;1.55;;;0.95;;
16727;SDS011;8482;54.396;18.590;2022-09-11T12:08:42;1.42;;;0.80;;
16727;SDS011;8482;54.396;18.590;2022-09-11T12:11:13;0.82;;;0.80;;
16727;SDS011;8482;54.396;18.590;2022-09-11T12:13:46;1.25;;;0.90;;
16727;SDS011;8482;54.396;18.590;2022-09-11T12:16:19;1.08;;;0.80;;
16727;SDS011;8482;54.396;18.590;2022-09-11T12:24:22;0.65;;;0.65;;
16727;SDS011;8482;54.396;18.590;2022-09-11T12:30:08;0.90;;;0.80;;
16727;SDS011;8482;54.396;18.590;2022-09-11T12:32:43;0.90;;;0.80;;
16727;SDS011;8482;54.396;18.590;2022-09-11T12:35:16;0.77;;;0.77;;
16727;SDS011;8482;54.396;18.590;2022-09-11T12:43:30;1.38;;;0.88;;
16727;SDS011;8482;54.396;18.590;2022-09-11T12:51:31;1.85;;;0.80;;
16727;SDS011;8482;54.396;18.590;2022-09-11T12:54:03;1.05;;;0.90;;
16727;SDS011;8482;54.396;18.590;2022-09-11T12:57:05;1.20;;;0.90;;
16727;SDS011;8482;54.396;18.590;2022-09-11T12:59:40;1.25;;;0.80;;
16727;SDS011;8482;54.396;18.590;2022-09-11T13:02:35;0.85;;;0.82;;
16727;SDS011;8482;54.396;18.590;2022-09-11T13:05:19;1.30;;;0.85;;
16727;SDS011;8482;54.396;18.590;2022-09-11T13:07:59;1.40;;;1.00;;
16727;SDS011;8482;54.396;18.590;2022-09-11T13:10:50;1.45;;;0.93;;
16727;SDS011;8482;54.396;18.590;2022-09-11T13:16:17;1.23;;;1.02;;
16727;SDS011;8482;54.396;18.590;2022-09-11T13:18:49;1.33;;;0.95;;
16727;SDS011;8482;54.396;18.590;2022-09-11T13:21:24;3.65;;;1.27;;
16727;SDS011;8482;54.396;18.590;2022-09-11T13:23:50;1.75;;;1.05;;
16727;SDS011;8482;54.396;18.590;2022-09-11T13:26:26;1.17;;;0.90;;
16727;SDS011;8482;54.396;18.590;2022-09-11T13:28:57;1.05;;;0.95;;
16727;SDS011;8482;54.396;18.590;2022-09-11T13:33:58;2.17;;;0.90;;
16727;SDS011;8482;54.396;18.590;2022-09-11T13:36:27;1.48;;;0.90;;
16727;SDS011;8482;54.396;18.590;2022-09-11T13:38:58;1.48;;;1.00;;
16727;SDS011;8482;54.396;18.590;2022-09-11T13:41:28;1.73;;;0.90;;
16727;SDS011;8482;54.396;18.590;2022-09-11T13:43:59;1.10;;;0.90;;
16727;SDS011;8482;54.396;18.590;2022-09-11T13:46:30;0.90;;;0.90;;
16727;SDS011;8482;54.396;18.590;2022-09-11T13:48:58;0.80;;;0.70;;
16727;SDS011;8482;54.396;18.590;2022-09-11T13:51:50;0.80;;;0.80;;
16727;SDS011;8482;54.396;18.590;2022-09-11T13:54:25;1.58;;;1.00;;
16727;SDS011;8482;54.396;18.590;2022-09-11T14:07:50;0.80;;;0.80;;
16727;SDS011;8482;54.396;18.590;2022-09-11T14:10:33;0.88;;;0.77;;
16727;SDS011;8482;54.396;18.590;2022-09-11T14:18:41;1.35;;;0.80;;
16727;SDS011;8482;54.396;18.590;2022-09-11T14:21:33;1.77;;;1.10;;
16727;SDS011;8482;54.396;18.590;2022-09-11T14:24:03;0.82;;;0.80;;
16727;SDS011;8482;54.396;18.590;2022-09-11T14:26:51;1.15;;;0.80;;
16727;SDS011;8482;54.396;18.590;2022-09-11T14:31:52;1.67;;;1.02;;
16727;SDS011;8482;54.396;18.590;2022-09-11T14:34:39;1.63;;;1.30;;
16727;SDS011;8482;54.396;18.590;2022-09-11T14:37:10;1.85;;;1.00;;
16727;SDS011;8482;54.396;18.590;2022-09-11T14:39:47;1.67;;;1.00;;
16727;SDS011;8482;54.396;18.590;2022-09-11T14:42:24;1.50;;;0.80;;
16727;SDS011;8482;54.396;18.590;2022-09-11T14:44:53;1.02;;;0.93;;
16727;SDS011;8482;54.396;18.590;2022-09-11T14:47:21;1.17;;;0.70;;
16727;SDS011;8482;54.396;18.590;2022-09-11T14:49:50;0.95;;;0.60;;
16727;SDS011;8482;54.396;18.590;2022-09-11T14:52:20;1.20;;;0.80;;
16727;SDS011;8482;54.396;18.590;2022-09-11T14:54:50;1.75;;;0.90;;
16727;SDS011;8482;54.396;18.590;2022-09-11T14:57:17;1.35;;;1.00;;
16727;SDS011;8482;54.396;18.590;2022-09-11T14:59:47;1.50;;;1.00;;
16727;SDS011;8482;54.396;18.590;2022-09-11T15:02:21;1.65;;;1.10;;
16727;SDS011;8482;54.396;18.590;2022-09-11T15:04:50;3.10;;;1.48;;
16727;SDS011;8482;54.396;18.590;2022-09-11T15:07:18;0.73;;;0.73;;
16727;SDS011;8482;54.396;18.590;2022-09-11T15:09:49;1.90;;;1.10;;
16727;SDS011;8482;54.396;18.590;2022-09-11T15:12:17;1.55;;;1.10;;
16727;SDS011;8482;54.396;18.590;2022-09-11T15:14:43;2.03;;;1.10;;
16727;SDS011;8482;54.396;18.590;2022-09-11T15:17:16;1.20;;;1.10;;
16727;SDS011;8482;54.396;18.590;2022-09-11T15:19:43;1.83;;;1.08;;
16727;SDS011;8482;54.396;18.590;2022-09-11T15:22:11;1.17;;;0.90;;
16727;SDS011;8482;54.396;18.590;2022-09-11T15:24:37;1.67;;;1.00;;
16727;SDS011;8482;54.396;18.590;2022-09-11T15:27:03;2.45;;;1.20;;
16727;SDS011;8482;54.396;18.590;2022-09-11T15:29:29;1.88;;;1.10;;
16727;SDS011;8482;54.396;18.590;2022-09-11T15:31:56;1.92;;;1.00;;
16727;SDS011;8482;54.396;18.590;2022-09-11T15:34:21;1.65;;;1.13;;
16727;SDS011;8482;54.396;18.590;2022-09-11T15:36:48;1.60;;;1.08;;
16727;SDS011;8482;54.396;18.590;2022-09-11T15:39:18;1.60;;;1.08;;
16727;SDS011;8482;54.396;18.590;2022-09-11T15:41:48;1.48;;;0.98;;
16727;SDS011;8482;54.396;18.590;2022-09-11T15:44:18;2.13;;;1.10;;
16727;SDS011;8482;54.396;18.590;2022-09-11T15:46:50;1.38;;;0.93;;
16727;SDS011;8482;54.396;18.590;2022-09-11T15:49:19;1.80;;;1.00;;
16727;SDS011;8482;54.396;18.590;2022-09-11T15:51:47;1.08;;;0.93;;
16727;SDS011;8482;54.396;18.590;2022-09-11T15:54:14;0.90;;;0.90;;
16727;SDS011;8482;54.396;18.590;2022-09-11T15:56:41;2.67;;;1.02;;
16727;SDS011;8482;54.396;18.590;2022-09-11T15:59:08;1.85;;;1.00;;
16727;SDS011;8482;54.396;18.590;2022-09-11T16:01:36;1.60;;;0.93;;
16727;SDS011;8482;54.396;18.590;2022-09-11T16:04:04;1.20;;;1.10;;
16727;SDS011;8482;54.396;18.590;2022-09-11T16:06:35;1.33;;;1.10;;
16727;SDS011;8482;54.396;18.590;2022-09-11T16:09:08;2.22;;;1.10;;
16727;SDS011;8482;54.396;18.590;2022-09-11T16:11:38;1.90;;;1.13;;
16727;SDS011;8482;54.396;18.590;2022-09-11T16:14:05;1.48;;;1.05;;
16727;SDS011;8482;54.396;18.590;2022-09-11T16:16:33;2.10;;;1.10;;
16727;SDS011;8482;54.396;18.590;2022-09-11T16:18:59;2.13;;;1.08;;
16727;SDS011;8482;54.396;18.590;2022-09-11T16:21:25;1.23;;;1.00;;
16727;SDS011;8482;54.396;18.590;2022-09-11T16:23:52;1.33;;;1.20;;
16727;SDS011;8482;54.396;18.590;2022-09-11T16:26:19;2.15;;;1.20;;
16727;SDS011;8482;54.396;18.590;2022-09-11T16:28:50;1.85;;;1.25;;
16727;SDS011;8482;54.396;18.590;2022-09-11T16:31:17;2.20;;;1.30;;
16727;SDS011;8482;54.396;18.590;2022-09-11T16:33:44;1.83;;;0.90;;
16727;SDS011;8482;54.396;18.590;2022-09-11T16:36:14;1.15;;;0.98;;
16727;SDS011;8482;54.396;18.590;2022-09-11T16:38:44;1.77;;;1.20;;
16727;SDS011;8482;54.396;18.590;2022-09-11T16:41:13;1.50;;;1.10;;
16727;SDS011;8482;54.396;18.590;2022-09-11T16:43:45;2.08;;;1.30;;
16727;SDS011;8482;54.396;18.590;2022-09-11T16:46:15;2.03;;;1.20;;
16727;SDS011;8482;54.396;18.590;2022-09-11T16:48:48;2.67;;;1.30;;
16727;SDS011;8482;54.396;18.590;2022-09-11T16:51:15;1.50;;;1.05;;
16727;SDS011;8482;54.396;18.590;2022-09-11T16:53:44;1.58;;;1.20;;
16727;SDS011;8482;54.396;18.590;2022-09-11T16:56:12;2.80;;;1.30;;
16727;SDS011;8482;54.396;18.590;2022-09-11T16:58:44;1.98;;;1.15;;
16727;SDS011;8482;54.396;18.590;2022-09-11T17:01:12;3.03;;;1.17;;
16727;SDS011;8482;54.396;18.590;2022-09-11T17:03:45;1.92;;;1.20;;
16727;SDS011;8482;54.396;18.590;2022-09-11T17:06:13;1.80;;;1.20;;
16727;SDS011;8482;54.396;18.590;2022-09-11T17:08:40;2.10;;;1.13;;
16727;SDS011;8482;54.396;18.590;2022-09-11T17:11:09;1.92;;;1.30;;
16727;SDS011;8482;54.396;18.590;2022-09-11T17:13:39;1.85;;;1.30;;
16727;SDS011;8482;54.396;18.590;2022-09-11T17:16:07;1.38;;;1.20;;
16727;SDS011;8482;54.396;18.590;2022-09-11T17:18:40;2.33;;;1.35;;
16727;SDS011;8482;54.396;18.590;2022-09-11T17:21:07;1.25;;;1.15;;
16727;SDS011;8482;54.396;18.590;2022-09-11T17:23:34;1.75;;;1.10;;
16727;SDS011;8482;54.396;18.590;2022-09-11T17:26:05;2.50;;;1.45;;
16727;SDS011;8482;54.396;18.590;2022-09-11T17:28:33;2.72;;;1.35;;
16727;SDS011;8482;54.396;18.590;2022-09-11T17:31:01;2.40;;;1.17;;
16727;SDS011;8482;54.396;18.590;2022-09-11T17:33:30;2.72;;;1.40;;
16727;SDS011;8482;54.396;18.590;2022-09-11T17:35:56;2.22;;;1.38;;
16727;SDS011;8482;54.396;18.590;2022-09-11T17:38:23;3.33;;;1.50;;
16727;SDS011;8482;54.396;18.590;2022-09-11T17:40:53;1.42;;;1.20;;
16727;SDS011;8482;54.396;18.590;2022-09-11T17:43:21;1.85;;;1.20;;
16727;SDS011;8482;54.396;18.590;2022-09-11T17:45:48;2.35;;;1.20;;
16727;SDS011;8482;54.396;18.590;2022-09-11T17:48:16;1.48;;;1.13;;
16727;SDS011;8482;54.396;18.590;2022-09-11T17:50:43;1.83;;;1.20;;
16727;SDS011;8482;54.396;18.590;2022-09-11T17:53:09;1.88;;;1.10;;
16727;SDS011;8482;54.396;18.590;2022-09-11T17:55:36;2.25;;;1.30;;
16727;SDS011;8482;54.396;18.590;2022-09-11T17:58:03;1.65;;;1.10;;